sensor_id;sensor_type;location;lat;lon;timestamp;temperature;humidity
5419;DHT22;2732;52.092;11.556;2023-02-28T00:04:27;0.10;99.90
5419;DHT22;2732;52.092;11.556;2023-02-28T00:09:28;0.10;99.90
5419;DHT22;2732;52.092;11.556;2023-02-28T00:14:30;0.10;99.90
5419;DHT22;2732;52.092;11.556;2023-02-28T00:19:30;0.10;99.90
5419;DHT22;2732;52.092;11.556;2023-02-28T00:24:31;0.10;99.90
5419;DHT22;2732;52.092;11.556;2023-02-28T00:29:31;0.10;99.90
5419;DHT22;2732;52.092;11.556;2023-02-28T00:34:32;0.10;99.90
5419;DHT22;2732;52.092;11.556;2023-02-28T00:39:38;0.10;99.90
5419;DHT22;2732;52.092;11.556;2023-02-28T00:44:39;0.20;99.90
5419;DHT22;2732;52.092;11.556;2023-02-28T00:49:40;0.20;99.90
5419;DHT22;2732;52.092;11.556;2023-02-28T00:54:41;0.20;99.90
5419;DHT22;2732;52.092;11.556;2023-02-28T00:59:41;0.20;99.90
5419;DHT22;2732;52.092;11.556;2023-02-28T01:04:42;0.20;99.90
5419;DHT22;2732;52.092;11.556;2023-02-28T01:09:42;0.20;99.90
5419;DHT22;2732;52.092;11.556;2023-02-28T01:14:43;0.20;99.90
5419;DHT22;2732;52.092;11.556;2023-02-28T01:19:44;0.20;99.90
5419;DHT22;2732;52.092;11.556;2023-02-28T01:24:44;0.30;99.90
5419;DHT22;2732;52.092;11.556;2023-02-28T01:29:45;0.30;99.90
5419;DHT22;2732;52.092;11.556;2023-02-28T01:34:45;0.30;99.90
5419;DHT22;2732;52.092;11.556;2023-02-28T01:39:46;0.30;99.90
5419;DHT22;2732;52.092;11.556;2023-02-28T01:45:04;0.30;99.90
5419;DHT22;2732;52.092;11.556;2023-02-28T01:50:23;0.30;99.90
5419;DHT22;2732;52.092;11.556;2023-02-28T01:55:26;0.30;99.90
5419;DHT22;2732;52.092;11.556;2023-02-28T02:00:29;0.30;99.90
5419;DHT22;2732;52.092;11.556;2023-02-28T02:05:31;0.30;99.90
5419;DHT22;2732;52.092;11.556;2023-02-28T02:10:43;0.30;99.90
5419;DHT22;2732;52.092;11.556;2023-02-28T02:16:11;0.30;99.90
5419;DHT22;2732;52.092;11.556;2023-02-28T02:27:04;0.20;99.90
5419;DHT22;2732;52.092;11.556;2023-02-28T02:32:35;0.20;99.90
5419;DHT22;2732;52.092;11.556;2023-02-28T02:38:27;0.20;99.90
5419;DHT22;2732;52.092;11.556;2023-02-28T02:43:39;0.20;99.90
5419;DHT22;2732;52.092;11.556;2023-02-28T02:48:50;0.20;99.90
5419;DHT22;2732;52.092;11.556;2023-02-28T02:59:08;0.20;99.90
5419;DHT22;2732;52.092;11.556;2023-02-28T03:04:15;0.20;99.90
5419;DHT22;2732;52.092;11.556;2023-02-28T03:09:18;0.20;99.90
5419;DHT22;2732;52.092;11.556;2023-02-28T03:14:28;0.20;99.90
5419;DHT22;2732;52.092;11.556;2023-02-28T03:25:13;0.20;99.90
5419;DHT22;2732;52.092;11.556;2023-02-28T03:36:09;0.10;99.90
5419;DHT22;2732;52.092;11.556;2023-02-28T03:41:17;0.10;99.90
5419;DHT22;2732;52.092;11.556;2023-02-28T03:46:23;0.10;99.90
5419;DHT22;2732;52.092;11.556;2023-02-28T03:51:27;0.10;99.90
5419;DHT22;2732;52.092;11.556;2023-02-28T04:02:12;0.10;99.90
5419;DHT22;2732;52.092;11.556;2023-02-28T04:07:13;0.10;99.90
5419;DHT22;2732;52.092;11.556;2023-02-28T04:12:13;0.00;99.90
5419;DHT22;2732;52.092;11.556;2023-02-28T04:17:14;0.00;99.90
5419;DHT22;2732;52.092;11.556;2023-02-28T04:22:17;0.00;99.90
5419;DHT22;2732;52.092;11.556;2023-02-28T04:27:18;0.00;99.90
5419;DHT22;2732;52.092;11.556;2023-02-28T04:32:19;0.00;99.90
5419;DHT22;2732;52.092;11.556;2023-02-28T04:37:19;0.00;99.90
5419;DHT22;2732;52.092;11.556;2023-02-28T04:42:20;-0.10;99.90
5419;DHT22;2732;52.092;11.556;2023-02-28T04:47:21;-0.10;99.90
5419;DHT22;2732;52.092;11.556;2023-02-28T04:52:21;-0.10;99.90
5419;DHT22;2732;52.092;11.556;2023-02-28T04:57:22;-0.10;99.90
5419;DHT22;2732;52.092;11.556;2023-02-28T05:02:23;-0.20;99.90
5419;DHT22;2732;52.092;11.556;2023-02-28T05:07:23;-0.20;99.90
5419;DHT22;2732;52.092;11.556;2023-02-28T05:12:24;-0.20;99.90
5419;DHT22;2732;52.092;11.556;2023-02-28T05:17:25;-0.20;99.90
5419;DHT22;2732;52.092;11.556;2023-02-28T05:22:25;-0.20;99.90
5419;DHT22;2732;52.092;11.556;2023-02-28T05:27:27;-0.30;99.90
5419;DHT22;2732;52.092;11.556;2023-02-28T05:32:28;-0.40;99.90
5419;DHT22;2732;52.092;11.556;2023-02-28T05:37:29;-0.40;99.90
5419;DHT22;2732;52.092;11.556;2023-02-28T05:42:29;-0.50;99.90
5419;DHT22;2732;52.092;11.556;2023-02-28T05:47:30;-0.50;99.90
5419;DHT22;2732;52.092;11.556;2023-02-28T05:52:31;-0.60;99.90
5419;DHT22;2732;52.092;11.556;2023-02-28T05:57:32;-0.60;99.90
5419;DHT22;2732;52.092;11.556;2023-02-28T06:02:33;-0.70;99.90
5419;DHT22;2732;52.092;11.556;2023-02-28T06:07:33;-0.70;99.90
5419;DHT22;2732;52.092;11.556;2023-02-28T06:12:34;-0.80;99.90
5419;DHT22;2732;52.092;11.556;2023-02-28T06:17:34;-0.80;99.90
5419;DHT22;2732;52.092;11.556;2023-02-28T06:22:37;-0.90;99.90
5419;DHT22;2732;52.092;11.556;2023-02-28T06:27:39;-1.00;99.90
5419;DHT22;2732;52.092;11.556;2023-02-28T06:32:40;-1.00;99.90
5419;DHT22;2732;52.092;11.556;2023-02-28T06:37:40;-1.00;99.90
5419;DHT22;2732;52.092;11.556;2023-02-28T06:42:41;-1.00;99.90
5419;DHT22;2732;52.092;11.556;2023-02-28T06:47:42;-1.00;99.90
5419;DHT22;2732;52.092;11.556;2023-02-28T06:52:43;-1.10;99.90
5419;DHT22;2732;52.092;11.556;2023-02-28T06:57:44;-1.10;99.90
5419;DHT22;2732;52.092;11.556;2023-02-28T07:02:44;-1.10;99.90
5419;DHT22;2732;52.092;11.556;2023-02-28T07:07:45;-1.10;99.90
5419;DHT22;2732;52.092;11.556;2023-02-28T07:12:47;-1.10;99.90
5419;DHT22;2732;52.092;11.556;2023-02-28T07:17:47;-1.10;99.90
5419;DHT22;2732;52.092;11.556;2023-02-28T07:22:48;-1.10;99.90
5419;DHT22;2732;52.092;11.556;2023-02-28T07:27:57;-1.10;99.90
5419;DHT22;2732;52.092;11.556;2023-02-28T07:32:59;-1.10;99.90
5419;DHT22;2732;52.092;11.556;2023-02-28T07:38:00;-1.00;99.90
5419;DHT22;2732;52.092;11.556;2023-02-28T07:43:02;-1.00;99.90
5419;DHT22;2732;52.092;11.556;2023-02-28T07:48:03;-0.90;99.90
5419;DHT22;2732;52.092;11.556;2023-02-28T07:53:04;-0.90;99.90
5419;DHT22;2732;52.092;11.556;2023-02-28T07:58:04;-0.80;99.90
5419;DHT22;2732;52.092;11.556;2023-02-28T08:03:05;-0.70;99.90
5419;DHT22;2732;52.092;11.556;2023-02-28T08:08:07;-0.50;99.90
5419;DHT22;2732;52.092;11.556;2023-02-28T08:13:08;-0.40;99.90
5419;DHT22;2732;52.092;11.556;2023-02-28T08:18:09;-0.20;99.90
5419;DHT22;2732;52.092;11.556;2023-02-28T08:23:10;-0.10;99.90
5419;DHT22;2732;52.092;11.556;2023-02-28T08:28:10;-0.10;99.90
5419;DHT22;2732;52.092;11.556;2023-02-28T08:33:11;-0.10;99.90
5419;DHT22;2732;52.092;11.556;2023-02-28T08:38:11;0.00;99.90
5419;DHT22;2732;52.092;11.556;2023-02-28T08:43:12;0.00;99.90
5419;DHT22;2732;52.092;11.556;2023-02-28T08:48:13;0.20;99.90
5419;DHT22;2732;52.092;11.556;2023-02-28T08:53:13;0.30;99.90
5419;DHT22;2732;52.092;11.556;2023-02-28T08:58:14;0.50;99.90
5419;DHT22;2732;52.092;11.556;2023-02-28T09:03:14;0.70;99.90
5419;DHT22;2732;52.092;11.556;2023-02-28T09:08:15;0.90;99.90
5419;DHT22;2732;52.092;11.556;2023-02-28T09:13:18;1.10;99.90
5419;DHT22;2732;52.092;11.556;2023-02-28T09:18:19;1.40;99.90
5419;DHT22;2732;52.092;11.556;2023-02-28T09:23:20;1.70;99.90
5419;DHT22;2732;52.092;11.556;2023-02-28T09:28:21;2.00;99.90
5419;DHT22;2732;52.092;11.556;2023-02-28T09:33:22;2.30;99.90
5419;DHT22;2732;52.092;11.556;2023-02-28T09:38:23;2.60;99.90
5419;DHT22;2732;52.092;11.556;2023-02-28T09:43:28;3.00;99.90
5419;DHT22;2732;52.092;11.556;2023-02-28T09:48:42;3.30;99.90
5419;DHT22;2732;52.092;11.556;2023-02-28T09:53:45;3.60;99.90
5419;DHT22;2732;52.092;11.556;2023-02-28T10:09:40;4.60;99.90
5419;DHT22;2732;52.092;11.556;2023-02-28T10:14:45;5.00;99.90
5419;DHT22;2732;52.092;11.556;2023-02-28T10:20:05;5.20;99.90
5419;DHT22;2732;52.092;11.556;2023-02-28T10:25:20;5.50;99.90
5419;DHT22;2732;52.092;11.556;2023-02-28T10:30:24;5.70;99.90
5419;DHT22;2732;52.092;11.556;2023-02-28T10:35:26;6.00;99.90
5419;DHT22;2732;52.092;11.556;2023-02-28T10:40:34;6.30;99.90
5419;DHT22;2732;52.092;11.556;2023-02-28T10:45:40;6.50;99.90
5419;DHT22;2732;52.092;11.556;2023-02-28T10:51:02;6.70;99.90
5419;DHT22;2732;52.092;11.556;2023-02-28T11:01:16;6.70;99.90
5419;DHT22;2732;52.092;11.556;2023-02-28T11:06:22;7.00;99.20
5419;DHT22;2732;52.092;11.556;2023-02-28T11:11:27;7.00;98.60
5419;DHT22;2732;52.092;11.556;2023-02-28T11:16:33;7.30;97.80
5419;DHT22;2732;52.092;11.556;2023-02-28T11:21:37;7.40;96.80
5419;DHT22;2732;52.092;11.556;2023-02-28T11:26:43;7.60;97.20
5419;DHT22;2732;52.092;11.556;2023-02-28T11:32:24;7.80;96.80
5419;DHT22;2732;52.092;11.556;2023-02-28T11:37:31;8.00;95.60
5419;DHT22;2732;52.092;11.556;2023-02-28T11:47:57;8.10;93.90
5419;DHT22;2732;52.092;11.556;2023-02-28T11:53:11;8.20;93.20
5419;DHT22;2732;52.092;11.556;2023-02-28T11:58:45;8.30;94.40
5419;DHT22;2732;52.092;11.556;2023-02-28T12:27:01;8.00;93.30
5419;DHT22;2732;52.092;11.556;2023-02-28T12:32:20;7.70;93.70
5419;DHT22;2732;52.092;11.556;2023-02-28T12:37:33;7.30;94.10
5419;DHT22;2732;52.092;11.556;2023-02-28T12:43:00;7.00;94.20
5419;DHT22;2732;52.092;11.556;2023-02-28T12:48:08;6.70;94.90
5419;DHT22;2732;52.092;11.556;2023-02-28T12:53:23;6.40;95.40
5419;DHT22;2732;52.092;11.556;2023-02-28T13:03:51;6.00;95.90
5419;DHT22;2732;52.092;11.556;2023-02-28T13:09:13;5.80;95.80
5419;DHT22;2732;52.092;11.556;2023-02-28T13:14:20;5.70;96.20
5419;DHT22;2732;52.092;11.556;2023-02-28T13:19:33;5.60;97.00
5419;DHT22;2732;52.092;11.556;2023-02-28T13:24:48;5.50;96.90
5419;DHT22;2732;52.092;11.556;2023-02-28T13:29:51;5.40;96.70
5419;DHT22;2732;52.092;11.556;2023-02-28T13:55:31;6.20;96.00
5419;DHT22;2732;52.092;11.556;2023-02-28T14:11:41;7.20;96.50
5419;DHT22;2732;52.092;11.556;2023-02-28T14:16:47;7.40;95.30
5419;DHT22;2732;52.092;11.556;2023-02-28T14:22:14;7.50;95.50
5419;DHT22;2732;52.092;11.556;2023-02-28T14:28:04;7.60;95.60
5419;DHT22;2732;52.092;11.556;2023-02-28T14:33:33;7.60;95.80
5419;DHT22;2732;52.092;11.556;2023-02-28T14:38:46;7.60;94.90
5419;DHT22;2732;52.092;11.556;2023-02-28T14:44:00;7.60;94.30
5419;DHT22;2732;52.092;11.556;2023-02-28T14:49:01;7.60;94.60
5419;DHT22;2732;52.092;11.556;2023-02-28T14:54:04;7.60;95.00
5419;DHT22;2732;52.092;11.556;2023-02-28T14:59:40;7.60;94.80
5419;DHT22;2732;52.092;11.556;2023-02-28T15:04:40;7.50;94.60
5419;DHT22;2732;52.092;11.556;2023-02-28T15:09:42;7.50;94.80
5419;DHT22;2732;52.092;11.556;2023-02-28T15:14:44;7.50;95.10
5419;DHT22;2732;52.092;11.556;2023-02-28T15:19:48;7.50;95.80
5419;DHT22;2732;52.092;11.556;2023-02-28T15:24:52;7.50;95.90
5419;DHT22;2732;52.092;11.556;2023-02-28T15:29:59;7.50;95.80
5419;DHT22;2732;52.092;11.556;2023-02-28T15:40:41;7.40;95.90
5419;DHT22;2732;52.092;11.556;2023-02-28T15:46:08;7.40;95.90
5419;DHT22;2732;52.092;11.556;2023-02-28T15:51:33;7.30;95.90
5419;DHT22;2732;52.092;11.556;2023-02-28T15:56:46;7.30;96.80
5419;DHT22;2732;52.092;11.556;2023-02-28T16:02:13;7.30;96.10
5419;DHT22;2732;52.092;11.556;2023-02-28T16:07:20;7.10;95.70
5419;DHT22;2732;52.092;11.556;2023-02-28T16:12:26;6.90;96.10
5419;DHT22;2732;52.092;11.556;2023-02-28T16:17:31;6.70;96.40
5419;DHT22;2732;52.092;11.556;2023-02-28T16:22:34;6.40;96.40
5419;DHT22;2732;52.092;11.556;2023-02-28T16:27:36;6.20;96.90
5419;DHT22;2732;52.092;11.556;2023-02-28T16:32:37;6.00;96.40
5419;DHT22;2732;52.092;11.556;2023-02-28T16:37:38;5.80;96.90
5419;DHT22;2732;52.092;11.556;2023-02-28T16:42:39;5.60;97.60
5419;DHT22;2732;52.092;11.556;2023-02-28T16:47:42;5.40;97.90
5419;DHT22;2732;52.092;11.556;2023-02-28T16:52:43;5.10;98.20
5419;DHT22;2732;52.092;11.556;2023-02-28T16:57:48;4.90;98.10
5419;DHT22;2732;52.092;11.556;2023-02-28T17:02:52;4.80;98.40
5419;DHT22;2732;52.092;11.556;2023-02-28T17:07:52;4.60;98.80
5419;DHT22;2732;52.092;11.556;2023-02-28T17:12:53;4.40;99.10
5419;DHT22;2732;52.092;11.556;2023-02-28T17:17:53;4.20;99.60
5419;DHT22;2732;52.092;11.556;2023-02-28T17:22:55;4.00;99.80
5419;DHT22;2732;52.092;11.556;2023-02-28T17:27:56;3.80;99.90
5419;DHT22;2732;52.092;11.556;2023-02-28T17:32:56;3.50;99.90
5419;DHT22;2732;52.092;11.556;2023-02-28T17:37:57;3.40;99.90
5419;DHT22;2732;52.092;11.556;2023-02-28T17:42:58;3.20;99.90
5419;DHT22;2732;52.092;11.556;2023-02-28T17:47:59;3.00;99.90
5419;DHT22;2732;52.092;11.556;2023-02-28T17:52:59;2.90;99.90
5419;DHT22;2732;52.092;11.556;2023-02-28T17:58:03;2.70;99.90
5419;DHT22;2732;52.092;11.556;2023-02-28T18:03:04;2.50;99.90
5419;DHT22;2732;52.092;11.556;2023-02-28T18:08:04;2.40;99.90
5419;DHT22;2732;52.092;11.556;2023-02-28T18:13:05;2.20;99.90
5419;DHT22;2732;52.092;11.556;2023-02-28T18:18:06;2.00;99.90
5419;DHT22;2732;52.092;11.556;2023-02-28T18:23:07;1.90;99.90
5419;DHT22;2732;52.092;11.556;2023-02-28T18:28:07;1.70;99.90
5419;DHT22;2732;52.092;11.556;2023-02-28T18:33:08;1.50;99.90
5419;DHT22;2732;52.092;11.556;2023-02-28T18:38:15;1.40;99.90
5419;DHT22;2732;52.092;11.556;2023-02-28T18:43:18;1.20;99.90
5419;DHT22;2732;52.092;11.556;2023-02-28T18:48:19;1.10;99.90
5419;DHT22;2732;52.092;11.556;2023-02-28T18:53:23;0.90;99.90
5419;DHT22;2732;52.092;11.556;2023-02-28T18:58:23;0.80;99.90
5419;DHT22;2732;52.092;11.556;2023-02-28T19:03:25;0.60;99.90
5419;DHT22;2732;52.092;11.556;2023-02-28T19:08:26;0.50;99.90
5419;DHT22;2732;52.092;11.556;2023-02-28T19:13:26;0.40;99.90
5419;DHT22;2732;52.092;11.556;2023-02-28T19:18:27;0.30;99.90
5419;DHT22;2732;52.092;11.556;2023-02-28T19:23:29;0.20;99.90
5419;DHT22;2732;52.092;11.556;2023-02-28T19:28:31;0.10;99.90
5419;DHT22;2732;52.092;11.556;2023-02-28T19:33:31;0.00;99.90
5419;DHT22;2732;52.092;11.556;2023-02-28T19:38:32;-0.10;99.90
5419;DHT22;2732;52.092;11.556;2023-02-28T19:43:32;-0.10;99.90
5419;DHT22;2732;52.092;11.556;2023-02-28T19:48:33;-0.20;99.90
5419;DHT22;2732;52.092;11.556;2023-02-28T19:53:35;-0.20;99.90
5419;DHT22;2732;52.092;11.556;2023-02-28T19:58:37;-0.30;99.90
5419;DHT22;2732;52.092;11.556;2023-02-28T20:03:40;-0.40;99.90
5419;DHT22;2732;52.092;11.556;2023-02-28T20:08:43;-0.50;99.90
5419;DHT22;2732;52.092;11.556;2023-02-28T20:13:43;-0.60;99.90
5419;DHT22;2732;52.092;11.556;2023-02-28T20:18:49;-0.60;99.90
5419;DHT22;2732;52.092;11.556;2023-02-28T20:23:52;-0.70;99.90
5419;DHT22;2732;52.092;11.556;2023-02-28T20:28:54;-0.80;99.90
5419;DHT22;2732;52.092;11.556;2023-02-28T20:33:55;-0.90;99.90
5419;DHT22;2732;52.092;11.556;2023-02-28T20:38:56;-0.90;99.90
5419;DHT22;2732;52.092;11.556;2023-02-28T20:43:57;-0.90;99.90
5419;DHT22;2732;52.092;11.556;2023-02-28T20:48:58;-1.00;99.90
5419;DHT22;2732;52.092;11.556;2023-02-28T20:54:02;-1.00;99.90
5419;DHT22;2732;52.092;11.556;2023-02-28T20:59:03;-1.00;99.90
5419;DHT22;2732;52.092;11.556;2023-02-28T21:04:06;-1.00;99.90
5419;DHT22;2732;52.092;11.556;2023-02-28T21:09:08;-1.00;99.90
5419;DHT22;2732;52.092;11.556;2023-02-28T21:14:15;-1.10;99.90
5419;DHT22;2732;52.092;11.556;2023-02-28T21:19:16;-1.10;99.90
5419;DHT22;2732;52.092;11.556;2023-02-28T21:24:19;-1.10;99.90
5419;DHT22;2732;52.092;11.556;2023-02-28T21:29:19;-1.20;99.90
5419;DHT22;2732;52.092;11.556;2023-02-28T21:34:20;-1.20;99.90
5419;DHT22;2732;52.092;11.556;2023-02-28T21:39:24;-1.20;99.90
5419;DHT22;2732;52.092;11.556;2023-02-28T21:44:26;-1.30;99.90
5419;DHT22;2732;52.092;11.556;2023-02-28T21:49:27;-1.30;99.90
5419;DHT22;2732;52.092;11.556;2023-02-28T21:54:28;-1.30;99.90
5419;DHT22;2732;52.092;11.556;2023-02-28T21:59:29;-1.40;99.90
5419;DHT22;2732;52.092;11.556;2023-02-28T22:04:29;-1.40;99.90
5419;DHT22;2732;52.092;11.556;2023-02-28T22:09:30;-1.50;99.90
5419;DHT22;2732;52.092;11.556;2023-02-28T22:14:31;-1.50;99.90
5419;DHT22;2732;52.092;11.556;2023-02-28T22:19:32;-1.60;99.90
5419;DHT22;2732;52.092;11.556;2023-02-28T22:24:32;-1.60;99.90
5419;DHT22;2732;52.092;11.556;2023-02-28T22:29:33;-1.60;99.90
5419;DHT22;2732;52.092;11.556;2023-02-28T22:34:34;-1.60;99.90
5419;DHT22;2732;52.092;11.556;2023-02-28T22:39:34;-1.60;99.90
5419;DHT22;2732;52.092;11.556;2023-02-28T22:44:35;-1.60;99.90
5419;DHT22;2732;52.092;11.556;2023-02-28T22:49:36;-1.50;99.90
5419;DHT22;2732;52.092;11.556;2023-02-28T22:54:36;-1.50;99.90
5419;DHT22;2732;52.092;11.556;2023-02-28T22:59:37;-1.60;99.90
5419;DHT22;2732;52.092;11.556;2023-02-28T23:04:37;-1.60;99.90
5419;DHT22;2732;52.092;11.556;2023-02-28T23:09:38;-1.60;99.90
5419;DHT22;2732;52.092;11.556;2023-02-28T23:14:38;-1.70;99.90
5419;DHT22;2732;52.092;11.556;2023-02-28T23:19:39;-1.60;99.90
5419;DHT22;2732;52.092;11.556;2023-02-28T23:24:39;-1.60;99.90
5419;DHT22;2732;52.092;11.556;2023-02-28T23:29:40;-1.70;99.90
5419;DHT22;2732;52.092;11.556;2023-02-28T23:34:43;-1.70;99.90
5419;DHT22;2732;52.092;11.556;2023-02-28T23:39:44;-1.80;99.90
5419;DHT22;2732;52.092;11.556;2023-02-28T23:44:45;-1.90;99.90
5419;DHT22;2732;52.092;11.556;2023-02-28T23:49:45;-1.90;99.90
5419;DHT22;2732;52.092;11.556;2023-02-28T23:54:47;-2.00;99.90
5419;DHT22;2732;52.092;11.556;2023-02-28T23:59:48;-2.00;99.90
